sensor_id;sensor_type;location;lat;lon;timestamp;P1;durP1;ratioP1;P2;durP2;ratioP2
78372;SDS011;67656;52.074;4.758;2023-07-28T00:03:15;11.00;;;3.30;;
78372;SDS011;67656;52.074;4.758;2023-07-28T00:08:16;10.18;;;3.60;;
78372;SDS011;67656;52.074;4.758;2023-07-28T00:13:16;10.50;;;3.63;;
78372;SDS011;67656;52.074;4.758;2023-07-28T00:18:16;12.07;;;4.03;;
78372;SDS011;67656;52.074;4.758;2023-07-28T00:23:17;14.85;;;4.38;;
78372;SDS011;67656;52.074;4.758;2023-07-28T00:28:17;15.00;;;4.65;;
78372;SDS011;67656;52.074;4.758;2023-07-28T00:33:17;13.30;;;4.28;;
78372;SDS011;67656;52.074;4.758;2023-07-28T00:38:18;16.70;;;4.72;;
78372;SDS011;67656;52.074;4.758;2023-07-28T00:43:19;11.70;;;4.05;;
78372;SDS011;67656;52.074;4.758;2023-07-28T00:48:19;16.90;;;5.30;;
78372;SDS011;67656;52.074;4.758;2023-07-28T00:53:20;11.48;;;4.72;;
78372;SDS011;67656;52.074;4.758;2023-07-28T00:58:23;19.83;;;5.10;;
78372;SDS011;67656;52.074;4.758;2023-07-28T01:03:24;18.08;;;5.47;;
78372;SDS011;67656;52.074;4.758;2023-07-28T01:08:33;24.80;;;6.53;;
78372;SDS011;67656;52.074;4.758;2023-07-28T01:13:38;18.33;;;5.78;;
78372;SDS011;67656;52.074;4.758;2023-07-28T01:18:38;20.52;;;5.47;;
78372;SDS011;67656;52.074;4.758;2023-07-28T01:28:46;15.27;;;5.70;;
78372;SDS011;67656;52.074;4.758;2023-07-28T01:33:48;14.27;;;5.72;;
78372;SDS011;67656;52.074;4.758;2023-07-28T01:38:48;22.00;;;6.68;;
78372;SDS011;67656;52.074;4.758;2023-07-28T01:43:48;22.02;;;6.55;;
78372;SDS011;67656;52.074;4.758;2023-07-28T01:48:49;20.15;;;5.80;;
78372;SDS011;67656;52.074;4.758;2023-07-28T01:53:49;18.10;;;6.07;;
78372;SDS011;67656;52.074;4.758;2023-07-28T01:58:50;18.42;;;6.03;;
78372;SDS011;67656;52.074;4.758;2023-07-28T02:03:50;24.40;;;6.93;;
78372;SDS011;67656;52.074;4.758;2023-07-28T02:08:51;20.50;;;6.28;;
78372;SDS011;67656;52.074;4.758;2023-07-28T02:13:51;21.02;;;5.90;;
78372;SDS011;67656;52.074;4.758;2023-07-28T02:18:52;18.90;;;5.78;;
78372;SDS011;67656;52.074;4.758;2023-07-28T02:23:52;21.92;;;6.13;;
78372;SDS011;67656;52.074;4.758;2023-07-28T02:28:52;17.95;;;6.43;;
78372;SDS011;67656;52.074;4.758;2023-07-28T02:33:53;17.40;;;6.13;;
78372;SDS011;67656;52.074;4.758;2023-07-28T02:38:53;21.73;;;5.72;;
78372;SDS011;67656;52.074;4.758;2023-07-28T02:43:53;21.23;;;5.63;;
78372;SDS011;67656;52.074;4.758;2023-07-28T02:48:54;16.30;;;5.90;;
78372;SDS011;67656;52.074;4.758;2023-07-28T02:53:54;20.60;;;6.35;;
78372;SDS011;67656;52.074;4.758;2023-07-28T02:58:55;24.20;;;6.60;;
78372;SDS011;67656;52.074;4.758;2023-07-28T03:03:55;21.92;;;6.60;;
78372;SDS011;67656;52.074;4.758;2023-07-28T03:08:58;26.45;;;7.90;;
78372;SDS011;67656;52.074;4.758;2023-07-28T03:14:13;23.75;;;7.78;;
78372;SDS011;67656;52.074;4.758;2023-07-28T03:19:14;27.92;;;7.65;;
78372;SDS011;67656;52.074;4.758;2023-07-28T03:24:14;29.50;;;7.82;;
78372;SDS011;67656;52.074;4.758;2023-07-28T03:29:15;25.33;;;8.20;;
78372;SDS011;67656;52.074;4.758;2023-07-28T03:34:15;27.17;;;7.97;;
78372;SDS011;67656;52.074;4.758;2023-07-28T03:39:16;28.45;;;9.35;;
78372;SDS011;67656;52.074;4.758;2023-07-28T03:44:19;24.05;;;7.53;;
78372;SDS011;67656;52.074;4.758;2023-07-28T03:49:20;27.25;;;9.30;;
78372;SDS011;67656;52.074;4.758;2023-07-28T03:54:20;29.70;;;9.02;;
78372;SDS011;67656;52.074;4.758;2023-07-28T03:59:21;33.72;;;8.93;;
78372;SDS011;67656;52.074;4.758;2023-07-28T04:04:22;31.92;;;9.32;;
78372;SDS011;67656;52.074;4.758;2023-07-28T04:09:23;36.35;;;10.07;;
78372;SDS011;67656;52.074;4.758;2023-07-28T04:14:23;33.60;;;9.73;;
78372;SDS011;67656;52.074;4.758;2023-07-28T04:19:24;24.30;;;9.20;;
78372;SDS011;67656;52.074;4.758;2023-07-28T04:24:24;32.42;;;9.52;;
78372;SDS011;67656;52.074;4.758;2023-07-28T04:29:25;31.40;;;9.18;;
78372;SDS011;67656;52.074;4.758;2023-07-28T04:34:25;26.42;;;9.13;;
78372;SDS011;67656;52.074;4.758;2023-07-28T04:39:49;33.00;;;9.13;;
78372;SDS011;67656;52.074;4.758;2023-07-28T04:44:51;37.13;;;10.27;;
78372;SDS011;67656;52.074;4.758;2023-07-28T04:49:52;28.00;;;8.55;;
78372;SDS011;67656;52.074;4.758;2023-07-28T04:55:28;26.27;;;7.93;;
78372;SDS011;67656;52.074;4.758;2023-07-28T05:00:28;30.63;;;7.95;;
78372;SDS011;67656;52.074;4.758;2023-07-28T05:05:29;25.08;;;8.50;;
78372;SDS011;67656;52.074;4.758;2023-07-28T05:10:30;23.67;;;8.55;;
78372;SDS011;67656;52.074;4.758;2023-07-28T05:15:30;24.48;;;8.27;;
78372;SDS011;67656;52.074;4.758;2023-07-28T05:20:31;28.25;;;7.72;;
78372;SDS011;67656;52.074;4.758;2023-07-28T05:25:42;25.23;;;7.22;;
78372;SDS011;67656;52.074;4.758;2023-07-28T05:30:42;20.92;;;7.93;;
78372;SDS011;67656;52.074;4.758;2023-07-28T05:35:42;22.85;;;7.85;;
78372;SDS011;67656;52.074;4.758;2023-07-28T05:40:43;25.60;;;7.88;;
78372;SDS011;67656;52.074;4.758;2023-07-28T05:45:46;28.45;;;8.65;;
78372;SDS011;67656;52.074;4.758;2023-07-28T05:50:47;27.40;;;7.00;;
78372;SDS011;67656;52.074;4.758;2023-07-28T05:55:48;24.73;;;8.40;;
78372;SDS011;67656;52.074;4.758;2023-07-28T06:00:48;19.30;;;7.28;;
78372;SDS011;67656;52.074;4.758;2023-07-28T06:06:08;20.15;;;7.25;;
78372;SDS011;67656;52.074;4.758;2023-07-28T06:11:09;17.95;;;7.05;;
78372;SDS011;67656;52.074;4.758;2023-07-28T06:16:09;21.20;;;7.68;;
78372;SDS011;67656;52.074;4.758;2023-07-28T06:21:10;20.65;;;7.75;;
78372;SDS011;67656;52.074;4.758;2023-07-28T06:26:10;23.55;;;8.68;;
78372;SDS011;67656;52.074;4.758;2023-07-28T06:31:15;21.13;;;7.57;;
78372;SDS011;67656;52.074;4.758;2023-07-28T06:36:15;22.63;;;7.45;;
78372;SDS011;67656;52.074;4.758;2023-07-28T06:41:15;19.58;;;7.90;;
78372;SDS011;67656;52.074;4.758;2023-07-28T06:46:18;19.77;;;7.50;;
78372;SDS011;67656;52.074;4.758;2023-07-28T06:51:19;17.98;;;7.20;;
78372;SDS011;67656;52.074;4.758;2023-07-28T06:56:19;16.85;;;6.45;;
78372;SDS011;67656;52.074;4.758;2023-07-28T07:01:19;12.13;;;6.28;;
78372;SDS011;67656;52.074;4.758;2023-07-28T07:06:20;14.60;;;5.32;;
78372;SDS011;67656;52.074;4.758;2023-07-28T07:11:20;9.48;;;4.95;;
78372;SDS011;67656;52.074;4.758;2023-07-28T07:16:21;8.93;;;4.57;;
78372;SDS011;67656;52.074;4.758;2023-07-28T07:21:21;9.30;;;4.35;;
78372;SDS011;67656;52.074;4.758;2023-07-28T07:26:22;10.70;;;4.25;;
78372;SDS011;67656;52.074;4.758;2023-07-28T07:31:22;8.43;;;3.72;;
78372;SDS011;67656;52.074;4.758;2023-07-28T07:36:22;8.90;;;4.00;;
78372;SDS011;67656;52.074;4.758;2023-07-28T07:41:23;7.78;;;3.97;;
78372;SDS011;67656;52.074;4.758;2023-07-28T07:46:23;8.60;;;3.90;;
78372;SDS011;67656;52.074;4.758;2023-07-28T07:51:24;7.57;;;4.00;;
78372;SDS011;67656;52.074;4.758;2023-07-28T07:56:25;8.85;;;4.03;;
78372;SDS011;67656;52.074;4.758;2023-07-28T08:01:25;6.35;;;3.30;;
78372;SDS011;67656;52.074;4.758;2023-07-28T08:06:25;6.72;;;3.58;;
78372;SDS011;67656;52.074;4.758;2023-07-28T08:11:26;5.50;;;3.40;;
78372;SDS011;67656;52.074;4.758;2023-07-28T08:16:26;6.97;;;3.75;;
78372;SDS011;67656;52.074;4.758;2023-07-28T08:21:27;7.45;;;3.88;;
78372;SDS011;67656;52.074;4.758;2023-07-28T08:26:27;5.38;;;3.15;;
78372;SDS011;67656;52.074;4.758;2023-07-28T08:31:28;7.47;;;3.30;;
78372;SDS011;67656;52.074;4.758;2023-07-28T08:36:28;7.82;;;3.80;;
78372;SDS011;67656;52.074;4.758;2023-07-28T08:41:29;7.75;;;3.80;;
78372;SDS011;67656;52.074;4.758;2023-07-28T08:46:29;9.00;;;4.20;;
78372;SDS011;67656;52.074;4.758;2023-07-28T08:51:30;7.85;;;3.30;;
78372;SDS011;67656;52.074;4.758;2023-07-28T08:56:30;5.93;;;3.10;;
78372;SDS011;67656;52.074;4.758;2023-07-28T09:01:30;4.85;;;2.75;;
78372;SDS011;67656;52.074;4.758;2023-07-28T09:06:31;4.80;;;2.80;;
78372;SDS011;67656;52.074;4.758;2023-07-28T09:11:31;7.45;;;3.58;;
78372;SDS011;67656;52.074;4.758;2023-07-28T09:16:32;5.05;;;3.00;;
78372;SDS011;67656;52.074;4.758;2023-07-28T09:21:33;6.10;;;2.60;;
78372;SDS011;67656;52.074;4.758;2023-07-28T09:26:39;4.07;;;2.50;;
78372;SDS011;67656;52.074;4.758;2023-07-28T09:31:41;4.22;;;2.50;;
78372;SDS011;67656;52.074;4.758;2023-07-28T09:36:45;6.75;;;3.58;;
78372;SDS011;67656;52.074;4.758;2023-07-28T09:41:46;5.78;;;3.10;;
78372;SDS011;67656;52.074;4.758;2023-07-28T09:46:54;8.52;;;3.80;;
78372;SDS011;67656;52.074;4.758;2023-07-28T09:51:57;5.80;;;3.03;;
78372;SDS011;67656;52.074;4.758;2023-07-28T09:57:03;5.93;;;2.78;;
78372;SDS011;67656;52.074;4.758;2023-07-28T10:02:05;7.97;;;3.47;;
78372;SDS011;67656;52.074;4.758;2023-07-28T10:07:05;6.63;;;2.95;;
78372;SDS011;67656;52.074;4.758;2023-07-28T10:12:08;8.70;;;3.60;;
78372;SDS011;67656;52.074;4.758;2023-07-28T10:17:18;4.70;;;2.50;;
78372;SDS011;67656;52.074;4.758;2023-07-28T10:22:18;6.85;;;2.92;;
78372;SDS011;67656;52.074;4.758;2023-07-28T10:27:28;8.48;;;3.15;;
78372;SDS011;67656;52.074;4.758;2023-07-28T10:32:36;8.85;;;3.28;;
78372;SDS011;67656;52.074;4.758;2023-07-28T10:37:44;5.47;;;2.65;;
78372;SDS011;67656;52.074;4.758;2023-07-28T10:42:45;6.28;;;2.80;;
78372;SDS011;67656;52.074;4.758;2023-07-28T10:47:45;4.90;;;2.70;;
78372;SDS011;67656;52.074;4.758;2023-07-28T10:52:46;8.13;;;3.42;;
78372;SDS011;67656;52.074;4.758;2023-07-28T10:57:47;5.30;;;2.95;;
78372;SDS011;67656;52.074;4.758;2023-07-28T11:02:49;4.75;;;2.42;;
78372;SDS011;67656;52.074;4.758;2023-07-28T11:07:59;7.88;;;2.05;;
78372;SDS011;67656;52.074;4.758;2023-07-28T11:13:01;5.20;;;2.63;;
78372;SDS011;67656;52.074;4.758;2023-07-28T11:18:03;6.43;;;2.45;;
78372;SDS011;67656;52.074;4.758;2023-07-28T11:23:04;7.32;;;2.28;;
78372;SDS011;67656;52.074;4.758;2023-07-28T11:28:04;5.93;;;2.20;;
78372;SDS011;67656;52.074;4.758;2023-07-28T11:33:08;5.60;;;2.55;;
78372;SDS011;67656;52.074;4.758;2023-07-28T11:38:09;5.32;;;2.13;;
78372;SDS011;67656;52.074;4.758;2023-07-28T11:43:10;6.47;;;2.13;;
78372;SDS011;67656;52.074;4.758;2023-07-28T11:48:11;4.50;;;2.10;;
78372;SDS011;67656;52.074;4.758;2023-07-28T11:53:14;4.55;;;2.13;;
78372;SDS011;67656;52.074;4.758;2023-07-28T11:58:14;4.80;;;1.88;;
78372;SDS011;67656;52.074;4.758;2023-07-28T12:03:15;5.20;;;2.03;;
78372;SDS011;67656;52.074;4.758;2023-07-28T12:08:15;3.33;;;1.92;;
78372;SDS011;67656;52.074;4.758;2023-07-28T12:13:32;4.07;;;2.17;;
78372;SDS011;67656;52.074;4.758;2023-07-28T12:18:33;7.20;;;2.30;;
78372;SDS011;67656;52.074;4.758;2023-07-28T12:23:33;5.68;;;2.60;;
78372;SDS011;67656;52.074;4.758;2023-07-28T12:28:34;5.63;;;2.20;;
78372;SDS011;67656;52.074;4.758;2023-07-28T12:33:34;4.30;;;2.35;;
78372;SDS011;67656;52.074;4.758;2023-07-28T12:38:34;3.25;;;1.90;;
78372;SDS011;67656;52.074;4.758;2023-07-28T12:43:35;4.25;;;2.38;;
78372;SDS011;67656;52.074;4.758;2023-07-28T12:48:35;5.80;;;2.22;;
78372;SDS011;67656;52.074;4.758;2023-07-28T12:53:36;5.97;;;3.00;;
78372;SDS011;67656;52.074;4.758;2023-07-28T12:58:36;5.18;;;3.00;;
78372;SDS011;67656;52.074;4.758;2023-07-28T13:03:37;5.07;;;2.75;;
78372;SDS011;67656;52.074;4.758;2023-07-28T13:08:37;7.82;;;3.53;;
78372;SDS011;67656;52.074;4.758;2023-07-28T13:13:38;7.60;;;4.20;;
78372;SDS011;67656;52.074;4.758;2023-07-28T13:18:38;7.93;;;4.47;;
78372;SDS011;67656;52.074;4.758;2023-07-28T13:23:39;7.68;;;4.10;;
78372;SDS011;67656;52.074;4.758;2023-07-28T13:28:40;10.25;;;5.65;;
78372;SDS011;67656;52.074;4.758;2023-07-28T13:33:40;9.77;;;5.43;;
78372;SDS011;67656;52.074;4.758;2023-07-28T13:38:40;8.68;;;4.30;;
78372;SDS011;67656;52.074;4.758;2023-07-28T13:43:41;6.45;;;3.50;;
78372;SDS011;67656;52.074;4.758;2023-07-28T13:48:41;7.40;;;4.05;;
78372;SDS011;67656;52.074;4.758;2023-07-28T13:53:42;6.97;;;3.65;;
78372;SDS011;67656;52.074;4.758;2023-07-28T13:58:42;5.57;;;3.50;;
78372;SDS011;67656;52.074;4.758;2023-07-28T14:03:43;12.55;;;4.78;;
78372;SDS011;67656;52.074;4.758;2023-07-28T14:08:43;11.80;;;5.35;;
78372;SDS011;67656;52.074;4.758;2023-07-28T14:13:43;11.93;;;6.30;;
78372;SDS011;67656;52.074;4.758;2023-07-28T14:18:44;9.45;;;5.15;;
78372;SDS011;67656;52.074;4.758;2023-07-28T14:23:44;10.70;;;5.43;;
78372;SDS011;67656;52.074;4.758;2023-07-28T14:28:45;11.98;;;4.43;;
78372;SDS011;67656;52.074;4.758;2023-07-28T14:33:45;13.93;;;4.45;;
78372;SDS011;67656;52.074;4.758;2023-07-28T14:38:46;6.93;;;3.40;;
78372;SDS011;67656;52.074;4.758;2023-07-28T14:43:46;7.60;;;3.60;;
78372;SDS011;67656;52.074;4.758;2023-07-28T14:48:46;6.75;;;3.95;;
78372;SDS011;67656;52.074;4.758;2023-07-28T14:53:47;7.18;;;3.90;;
78372;SDS011;67656;52.074;4.758;2023-07-28T14:58:47;7.18;;;3.85;;
78372;SDS011;67656;52.074;4.758;2023-07-28T15:03:48;8.75;;;3.58;;
78372;SDS011;67656;52.074;4.758;2023-07-28T15:08:48;9.05;;;3.80;;
78372;SDS011;67656;52.074;4.758;2023-07-28T15:13:49;5.60;;;3.58;;
78372;SDS011;67656;52.074;4.758;2023-07-28T15:18:49;8.35;;;4.68;;
78372;SDS011;67656;52.074;4.758;2023-07-28T15:23:53;8.57;;;4.47;;
78372;SDS011;67656;52.074;4.758;2023-07-28T15:28:57;5.95;;;3.53;;
78372;SDS011;67656;52.074;4.758;2023-07-28T15:38:58;4.53;;;2.40;;
78372;SDS011;67656;52.074;4.758;2023-07-28T15:43:58;5.45;;;2.80;;
78372;SDS011;67656;52.074;4.758;2023-07-28T15:48:59;6.43;;;2.90;;
78372;SDS011;67656;52.074;4.758;2023-07-28T15:53:59;5.20;;;3.28;;
78372;SDS011;67656;52.074;4.758;2023-07-28T15:58:59;4.90;;;3.28;;
78372;SDS011;67656;52.074;4.758;2023-07-28T16:04:00;6.00;;;3.65;;
78372;SDS011;67656;52.074;4.758;2023-07-28T16:09:00;6.00;;;3.50;;
78372;SDS011;67656;52.074;4.758;2023-07-28T16:14:01;4.78;;;3.47;;
78372;SDS011;67656;52.074;4.758;2023-07-28T16:19:01;5.82;;;3.92;;
78372;SDS011;67656;52.074;4.758;2023-07-28T16:24:01;6.18;;;3.95;;
78372;SDS011;67656;52.074;4.758;2023-07-28T16:29:02;5.32;;;3.90;;
78372;SDS011;67656;52.074;4.758;2023-07-28T16:34:02;6.65;;;3.70;;
78372;SDS011;67656;52.074;4.758;2023-07-28T16:39:05;5.67;;;3.47;;
78372;SDS011;67656;52.074;4.758;2023-07-28T16:44:05;4.85;;;3.28;;
78372;SDS011;67656;52.074;4.758;2023-07-28T16:49:05;5.63;;;3.22;;
78372;SDS011;67656;52.074;4.758;2023-07-28T16:54:06;5.63;;;3.40;;
78372;SDS011;67656;52.074;4.758;2023-07-28T16:59:07;5.65;;;3.28;;
78372;SDS011;67656;52.074;4.758;2023-07-28T17:04:08;5.22;;;3.38;;
78372;SDS011;67656;52.074;4.758;2023-07-28T17:09:08;7.22;;;3.70;;
78372;SDS011;67656;52.074;4.758;2023-07-28T17:14:09;5.93;;;3.35;;
78372;SDS011;67656;52.074;4.758;2023-07-28T17:19:09;5.78;;;3.65;;
78372;SDS011;67656;52.074;4.758;2023-07-28T17:24:10;5.47;;;3.60;;
78372;SDS011;67656;52.074;4.758;2023-07-28T17:29:10;5.88;;;3.83;;
78372;SDS011;67656;52.074;4.758;2023-07-28T17:34:11;6.32;;;3.60;;
78372;SDS011;67656;52.074;4.758;2023-07-28T17:39:11;5.40;;;3.50;;
78372;SDS011;67656;52.074;4.758;2023-07-28T17:44:11;7.45;;;3.75;;
78372;SDS011;67656;52.074;4.758;2023-07-28T17:49:12;5.50;;;3.70;;
78372;SDS011;67656;52.074;4.758;2023-07-28T17:54:12;5.20;;;3.67;;
78372;SDS011;67656;52.074;4.758;2023-07-28T17:59:13;6.85;;;3.53;;
78372;SDS011;67656;52.074;4.758;2023-07-28T18:04:13;5.93;;;3.40;;
78372;SDS011;67656;52.074;4.758;2023-07-28T18:09:14;4.70;;;2.90;;
78372;SDS011;67656;52.074;4.758;2023-07-28T18:14:17;5.15;;;2.70;;
78372;SDS011;67656;52.074;4.758;2023-07-28T18:19:18;7.95;;;3.00;;
78372;SDS011;67656;52.074;4.758;2023-07-28T18:24:18;5.47;;;2.85;;
78372;SDS011;67656;52.074;4.758;2023-07-28T18:29:18;4.80;;;2.70;;
78372;SDS011;67656;52.074;4.758;2023-07-28T18:34:19;6.03;;;2.78;;
78372;SDS011;67656;52.074;4.758;2023-07-28T18:39:19;3.38;;;2.40;;
78372;SDS011;67656;52.074;4.758;2023-07-28T18:44:20;4.70;;;2.38;;
78372;SDS011;67656;52.074;4.758;2023-07-28T18:49:20;6.22;;;2.60;;
78372;SDS011;67656;52.074;4.758;2023-07-28T18:54:21;4.07;;;2.97;;
78372;SDS011;67656;52.074;4.758;2023-07-28T18:59:21;3.97;;;2.67;;
78372;SDS011;67656;52.074;4.758;2023-07-28T19:04:22;4.07;;;2.42;;
78372;SDS011;67656;52.074;4.758;2023-07-28T19:09:22;3.50;;;1.98;;
78372;SDS011;67656;52.074;4.758;2023-07-28T19:14:23;5.65;;;2.05;;
78372;SDS011;67656;52.074;4.758;2023-07-28T19:19:23;4.25;;;2.38;;
78372;SDS011;67656;52.074;4.758;2023-07-28T19:24:23;3.53;;;1.92;;
78372;SDS011;67656;52.074;4.758;2023-07-28T19:29:24;5.63;;;1.90;;
78372;SDS011;67656;52.074;4.758;2023-07-28T19:34:24;4.15;;;1.90;;
78372;SDS011;67656;52.074;4.758;2023-07-28T19:39:25;4.70;;;1.75;;
78372;SDS011;67656;52.074;4.758;2023-07-28T19:44:25;6.20;;;1.95;;
78372;SDS011;67656;52.074;4.758;2023-07-28T19:49:25;7.38;;;1.90;;
78372;SDS011;67656;52.074;4.758;2023-07-28T19:54:26;3.60;;;1.70;;
78372;SDS011;67656;52.074;4.758;2023-07-28T19:59:26;3.28;;;1.40;;
78372;SDS011;67656;52.074;4.758;2023-07-28T20:04:26;3.97;;;1.20;;
78372;SDS011;67656;52.074;4.758;2023-07-28T20:09:27;2.08;;;1.15;;
78372;SDS011;67656;52.074;4.758;2023-07-28T20:14:27;2.55;;;0.90;;
78372;SDS011;67656;52.074;4.758;2023-07-28T20:19:28;3.78;;;1.45;;
78372;SDS011;67656;52.074;4.758;2023-07-28T20:24:28;2.03;;;0.63;;
78372;SDS011;67656;52.074;4.758;2023-07-28T20:29:28;0.80;;;0.50;;
78372;SDS011;67656;52.074;4.758;2023-07-28T20:34:29;1.40;;;0.70;;
78372;SDS011;67656;52.074;4.758;2023-07-28T20:39:29;1.98;;;0.60;;
78372;SDS011;67656;52.074;4.758;2023-07-28T20:44:29;1.60;;;0.63;;
78372;SDS011;67656;52.074;4.758;2023-07-28T20:49:30;1.13;;;0.60;;
78372;SDS011;67656;52.074;4.758;2023-07-28T20:54:30;2.45;;;0.70;;
78372;SDS011;67656;52.074;4.758;2023-07-28T20:59:31;2.30;;;0.80;;
78372;SDS011;67656;52.074;4.758;2023-07-28T21:04:31;2.30;;;0.68;;
78372;SDS011;67656;52.074;4.758;2023-07-28T21:09:31;2.47;;;0.70;;
78372;SDS011;67656;52.074;4.758;2023-07-28T21:14:32;1.13;;;0.80;;
78372;SDS011;67656;52.074;4.758;2023-07-28T21:19:32;1.88;;;0.65;;
78372;SDS011;67656;52.074;4.758;2023-07-28T21:24:33;3.55;;;0.98;;
78372;SDS011;67656;52.074;4.758;2023-07-28T21:29:33;2.13;;;0.80;;
78372;SDS011;67656;52.074;4.758;2023-07-28T21:34:33;2.17;;;0.80;;
78372;SDS011;67656;52.074;4.758;2023-07-28T21:39:34;3.58;;;1.02;;
78372;SDS011;67656;52.074;4.758;2023-07-28T21:44:34;2.00;;;0.80;;
78372;SDS011;67656;52.074;4.758;2023-07-28T21:49:35;3.58;;;0.90;;
78372;SDS011;67656;52.074;4.758;2023-07-28T21:54:35;1.88;;;0.60;;
78372;SDS011;67656;52.074;4.758;2023-07-28T21:59:35;2.42;;;0.70;;
78372;SDS011;67656;52.074;4.758;2023-07-28T22:04:36;2.05;;;0.73;;
78372;SDS011;67656;52.074;4.758;2023-07-28T22:09:36;1.58;;;0.70;;
78372;SDS011;67656;52.074;4.758;2023-07-28T22:14:37;3.35;;;0.70;;
78372;SDS011;67656;52.074;4.758;2023-07-28T22:19:37;2.58;;;0.80;;
78372;SDS011;67656;52.074;4.758;2023-07-28T22:24:37;3.00;;;0.68;;
78372;SDS011;67656;52.074;4.758;2023-07-28T22:29:38;3.17;;;0.73;;
78372;SDS011;67656;52.074;4.758;2023-07-28T22:34:38;2.83;;;0.60;;
78372;SDS011;67656;52.074;4.758;2023-07-28T22:39:38;2.33;;;0.85;;
78372;SDS011;67656;52.074;4.758;2023-07-28T22:44:39;1.65;;;0.70;;
78372;SDS011;67656;52.074;4.758;2023-07-28T22:49:39;2.95;;;0.70;;
78372;SDS011;67656;52.074;4.758;2023-07-28T22:54:40;2.70;;;0.65;;
78372;SDS011;67656;52.074;4.758;2023-07-28T22:59:40;2.70;;;1.25;;
78372;SDS011;67656;52.074;4.758;2023-07-28T23:04:41;4.72;;;1.50;;
78372;SDS011;67656;52.074;4.758;2023-07-28T23:09:41;2.58;;;1.10;;
78372;SDS011;67656;52.074;4.758;2023-07-28T23:14:42;3.40;;;1.38;;
78372;SDS011;67656;52.074;4.758;2023-07-28T23:19:43;6.05;;;1.50;;
78372;SDS011;67656;52.074;4.758;2023-07-28T23:24:43;5.32;;;1.35;;
78372;SDS011;67656;52.074;4.758;2023-07-28T23:29:44;2.90;;;1.33;;
78372;SDS011;67656;52.074;4.758;2023-07-28T23:34:44;3.45;;;1.10;;
78372;SDS011;67656;52.074;4.758;2023-07-28T23:39:44;3.00;;;0.98;;
78372;SDS011;67656;52.074;4.758;2023-07-28T23:44:45;6.30;;;1.85;;
78372;SDS011;67656;52.074;4.758;2023-07-28T23:49:45;2.70;;;1.02;;
78372;SDS011;67656;52.074;4.758;2023-07-28T23:54:45;3.22;;;1.23;;
78372;SDS011;67656;52.074;4.758;2023-07-28T23:59:46;1.85;;;1.10;;
